createdAt,value
2023-04-01T00:01:50.204Z,15.92
2023-04-01T00:04:18.165Z,15.90
2023-04-01T00:06:45.076Z,15.81
2023-04-01T00:09:11.999Z,15.86
2023-04-01T00:11:39.645Z,15.84
2023-04-01T00:14:07.913Z,15.85
2023-04-01T00:16:34.990Z,15.81
2023-04-01T00:19:02.124Z,15.83
2023-04-01T00:21:29.101Z,15.80
2023-04-01T00:23:55.956Z,15.79
2023-04-01T00:26:23.589Z,15.80
2023-04-01T00:28:50.517Z,15.78
2023-04-01T00:31:18.030Z,15.78
2023-04-01T00:33:45.130Z,15.76
2023-04-01T00:36:14.416Z,15.81
2023-04-01T00:38:42.915Z,15.85
2023-04-01T00:41:15.400Z,15.82
2023-04-01T00:43:48.221Z,15.80
2023-04-01T00:46:15.249Z,15.85
2023-04-01T00:49:09.690Z,15.83
2023-04-01T00:51:39.271Z,15.82
2023-04-01T00:54:07.893Z,15.82
2023-04-01T00:57:00.962Z,15.73
2023-04-01T00:59:34.904Z,15.75
2023-04-01T01:02:05.246Z,15.70
2023-04-01T01:04:34.701Z,15.63
2023-04-01T01:07:09.974Z,15.62
2023-04-01T01:10:16.028Z,15.56
2023-04-01T01:12:48.440Z,15.50
2023-04-01T01:15:27.114Z,15.24
2023-04-01T01:18:08.979Z,15.18
2023-04-01T01:21:08.308Z,15.26
2023-04-01T01:23:43.802Z,15.23
2023-04-01T01:26:29.521Z,15.09
2023-04-01T01:29:17.993Z,14.96
2023-04-01T01:32:10.562Z,14.96
2023-04-01T01:35:14.161Z,14.85
2023-04-01T01:37:44.230Z,14.83
2023-04-01T01:40:13.062Z,14.78
2023-04-01T01:42:44.530Z,14.80
2023-04-01T01:45:13.852Z,14.73
2023-04-01T01:47:42.749Z,14.74
2023-04-01T01:50:11.848Z,14.61
2023-04-01T01:52:38.689Z,14.39
2023-04-01T01:55:35.338Z,14.24
2023-04-01T01:58:10.282Z,14.16
2023-04-01T02:00:37.629Z,14.20
2023-04-01T02:03:06.187Z,14.23
2023-04-01T02:05:33.825Z,14.20
2023-04-01T02:08:12.386Z,14.15
2023-04-01T02:10:44.094Z,14.13
2023-04-01T02:13:35.108Z,14.19
2023-04-01T02:16:08.645Z,14.14
2023-04-01T02:18:38.621Z,14.17
2023-04-01T02:21:06.931Z,14.26
2023-04-01T02:23:37.350Z,14.24
2023-04-01T02:26:08.809Z,14.14
2023-04-01T02:28:39.266Z,14.01
2023-04-01T02:31:07.017Z,14.02
2023-04-01T02:33:34.158Z,14.07
2023-04-01T02:36:01.181Z,13.99
2023-04-01T02:38:28.107Z,13.93
2023-04-01T02:41:01.599Z,13.89
2023-04-01T02:43:29.289Z,13.88
2023-04-01T02:45:56.174Z,13.75
2023-04-01T02:48:23.258Z,13.78
2023-04-01T02:50:50.641Z,13.75
2023-04-01T02:53:18.141Z,13.75
2023-04-01T02:55:46.120Z,13.72
2023-04-01T02:58:13.126Z,13.73
2023-04-01T03:00:40.103Z,13.72
2023-04-01T03:03:07.377Z,13.72
2023-04-01T03:05:34.702Z,13.70
2023-04-01T03:08:02.402Z,13.70
2023-04-01T03:10:29.343Z,13.63
2023-04-01T03:12:56.318Z,13.72
2023-04-01T03:15:23.168Z,13.70
2023-04-01T03:17:50.236Z,13.72
2023-04-01T03:20:17.231Z,13.71
2023-04-01T03:22:44.128Z,13.66
2023-04-01T03:25:12.185Z,13.69
2023-04-01T03:27:39.147Z,13.64
2023-04-01T03:30:07.071Z,13.61
2023-04-01T03:32:34.289Z,13.62
2023-04-01T03:35:01.145Z,13.58
2023-04-01T03:37:28.689Z,13.48
2023-04-01T03:39:55.742Z,13.45
2023-04-01T03:42:22.600Z,13.48
2023-04-01T03:44:49.482Z,13.38
2023-04-01T03:47:16.412Z,13.25
2023-04-01T03:49:43.187Z,13.20
2023-04-01T03:52:12.982Z,13.08
2023-04-01T03:54:40.065Z,13.05
2023-04-01T03:57:07.102Z,13.03
2023-04-01T03:59:34.558Z,12.90
2023-04-01T04:02:01.510Z,12.95
2023-04-01T04:04:29.027Z,12.53
2023-04-01T04:06:56.248Z,12.71
2023-04-01T04:09:23.675Z,12.73
2023-04-01T04:11:50.972Z,12.63
2023-04-01T04:14:18.178Z,12.65
2023-04-01T04:16:45.095Z,12.73
2023-04-01T04:19:12.259Z,12.76
2023-04-01T04:21:40.429Z,12.71
2023-04-01T04:24:07.460Z,12.77
2023-04-01T04:26:34.310Z,12.72
2023-04-01T04:29:01.699Z,12.71
2023-04-01T04:31:28.657Z,12.73
2023-04-01T04:33:55.922Z,12.67
2023-04-01T04:36:22.925Z,12.52
2023-04-01T04:38:49.849Z,12.62
2023-04-01T04:41:19.190Z,12.57
2023-04-01T04:43:54.709Z,12.57
2023-04-01T04:46:22.537Z,12.53
2023-04-01T04:48:49.553Z,12.28
2023-04-01T04:51:21.051Z,12.45
2023-04-01T04:53:49.537Z,12.41
2023-04-01T04:56:21.869Z,12.43
2023-04-01T04:58:49.426Z,12.49
2023-04-01T05:01:17.555Z,12.42
2023-04-01T05:03:44.588Z,12.38
2023-04-01T05:06:14.710Z,12.34
2023-04-01T05:08:43.851Z,12.19
2023-04-01T05:11:14.113Z,11.51
2023-04-01T05:13:41.719Z,11.56
2023-04-01T05:16:13.870Z,11.74
2023-04-01T05:18:40.929Z,11.78
2023-04-01T05:21:10.284Z,11.50
2023-04-01T05:23:37.700Z,11.31
2023-04-01T05:26:10.178Z,10.78
2023-04-01T05:28:37.240Z,11.01
2023-04-01T05:31:04.561Z,10.89
2023-04-01T05:33:32.126Z,10.93
2023-04-01T05:36:17.298Z,10.99
2023-04-01T05:38:46.988Z,10.83
2023-04-01T05:41:14.872Z,10.96
2023-04-01T05:43:42.417Z,11.12
2023-04-01T05:46:09.803Z,11.25
2023-04-01T05:48:36.804Z,11.48
2023-04-01T05:51:04.400Z,11.54
2023-04-01T05:53:31.420Z,11.67
2023-04-01T05:55:58.276Z,11.46
2023-04-01T05:58:25.109Z,11.42
2023-04-01T06:01:05.905Z,11.69
2023-04-01T06:03:36.568Z,11.88
2023-04-01T06:06:04.380Z,12.04
2023-04-01T06:08:32.860Z,11.97
2023-04-01T06:11:12.209Z,12.24
2023-04-01T06:14:08.398Z,12.33
2023-04-01T06:16:54.446Z,12.29
2023-04-01T06:19:37.566Z,12.46
2023-04-01T06:22:10.394Z,12.53
2023-04-01T06:25:15.677Z,12.53
2023-04-01T06:28:30.997Z,12.50
2023-04-01T06:31:25.399Z,12.51
2023-04-01T06:34:30.389Z,12.29
2023-04-01T06:37:15.963Z,12.25
2023-04-01T06:39:59.481Z,12.24
2023-04-01T06:43:07.160Z,12.34
2023-04-01T06:46:24.673Z,12.38
2023-04-01T06:49:28.145Z,12.40
2023-04-01T06:52:32.606Z,12.51
2023-04-01T06:55:15.571Z,12.57
2023-04-01T06:57:50.935Z,12.51
2023-04-01T07:00:40.345Z,12.57
2023-04-01T07:03:30.581Z,12.61
2023-04-01T07:06:03.678Z,12.64
2023-04-01T07:08:33.523Z,12.43
2023-04-01T07:11:05.711Z,12.55
2023-04-01T07:13:35.668Z,12.64
2023-04-01T07:16:12.256Z,12.85
2023-04-01T07:18:43.237Z,12.76
2023-04-01T07:21:22.234Z,12.93
2023-04-01T07:23:53.879Z,13.01
2023-04-01T07:26:23.567Z,13.08
2023-04-01T07:28:53.675Z,13.04
2023-04-01T07:31:44.248Z,13.13
2023-04-01T07:34:29.543Z,13.10
2023-04-01T07:37:23.312Z,13.25
2023-04-01T07:40:23.009Z,12.90
2023-04-01T07:43:03.649Z,13.46
2023-04-01T07:46:04.666Z,14.25
2023-04-01T07:48:32.472Z,15.03
2023-04-01T07:51:09.012Z,15.52
2023-04-01T07:53:51.427Z,15.05
2023-04-01T07:56:37.051Z,15.14
2023-04-01T07:59:30.125Z,14.82
2023-04-01T08:02:16.347Z,14.52
2023-04-01T08:04:49.250Z,14.52
2023-04-01T08:07:26.828Z,14.84
2023-04-01T08:09:56.680Z,15.43
2023-04-01T08:12:51.290Z,15.07
2023-04-01T08:15:33.669Z,15.71
2023-04-01T08:18:19.889Z,16.04
2023-04-01T08:20:48.838Z,15.94
2023-04-01T08:23:21.964Z,15.71
2023-04-01T08:26:33.167Z,15.96
2023-04-01T08:29:05.389Z,15.71
2023-04-01T08:31:44.424Z,14.81
2023-04-01T08:34:23.705Z,14.77
2023-04-01T08:37:03.994Z,14.63
2023-04-01T08:39:35.504Z,14.47
2023-04-01T08:42:14.450Z,14.50
2023-04-01T08:45:19.670Z,14.96
2023-04-01T08:48:28.571Z,15.34
2023-04-01T08:51:18.228Z,15.32
2023-04-01T08:54:01.687Z,14.98
2023-04-01T08:56:41.410Z,14.34
2023-04-01T08:59:22.110Z,14.18
2023-04-01T09:02:27.181Z,14.32
2023-04-01T09:05:21.153Z,14.78
2023-04-01T09:08:04.821Z,15.99
2023-04-01T09:10:34.468Z,16.11
2023-04-01T09:13:24.156Z,17.10
2023-04-01T09:16:10.190Z,17.60
2023-04-01T09:19:05.013Z,17.94
2023-04-01T09:21:53.697Z,18.84
2023-04-01T09:24:39.074Z,18.52
2023-04-01T09:27:33.814Z,18.07
2023-04-01T09:30:25.792Z,17.84
2023-04-01T09:33:30.235Z,17.58
2023-04-01T09:36:16.974Z,18.12
2023-04-01T09:39:10.750Z,17.71
2023-04-01T09:41:59.221Z,17.59
2023-04-01T09:44:36.391Z,17.69
2023-04-01T09:47:44.052Z,18.03
2023-04-01T09:50:19.937Z,18.16
2023-04-01T09:53:17.390Z,18.21
2023-04-01T09:55:56.492Z,18.07
2023-04-01T09:58:47.853Z,17.65
2023-04-01T10:01:56.511Z,17.29
2023-04-01T10:04:26.692Z,16.81
2023-04-01T10:07:14.993Z,15.80
2023-04-01T10:10:05.021Z,14.86
2023-04-01T10:13:09.329Z,14.46
2023-04-01T10:16:06.169Z,13.63
2023-04-01T10:18:51.608Z,13.61
2023-04-01T10:21:41.445Z,13.34
2023-04-01T10:24:30.121Z,13.03
2023-04-01T10:27:07.318Z,13.00
2023-04-01T10:29:53.746Z,12.66
2023-04-01T10:32:20.662Z,12.00
2023-04-01T10:34:56.454Z,11.67
2023-04-01T10:38:00.452Z,11.30
2023-04-01T10:40:35.374Z,10.97
2023-04-01T10:43:20.656Z,11.35
2023-04-01T10:46:13.238Z,11.58
2023-04-01T10:48:41.797Z,11.29
2023-04-01T10:51:20.824Z,11.47
2023-04-01T10:54:00.787Z,11.41
2023-04-01T10:56:49.548Z,11.66
2023-04-01T10:59:44.497Z,11.71
2023-04-01T11:02:43.756Z,11.86
2023-04-01T11:05:47.777Z,12.24
2023-04-01T11:08:26.386Z,12.78
2023-04-01T11:11:31.735Z,12.89
2023-04-01T11:14:32.070Z,13.68
2023-04-01T11:17:20.571Z,14.02
2023-04-01T11:19:56.428Z,14.00
2023-04-01T11:22:47.757Z,14.21
2023-04-01T11:25:26.937Z,14.40
2023-04-01T11:28:18.337Z,14.29
2023-04-01T11:31:22.286Z,14.49
2023-04-01T11:34:16.652Z,14.53
2023-04-01T11:37:16.300Z,14.42
2023-04-01T11:39:55.898Z,14.36
2023-04-01T11:42:42.386Z,14.41
2023-04-01T11:45:14.925Z,14.39
2023-04-01T11:48:09.812Z,14.42
2023-04-01T11:50:54.986Z,14.51
2023-04-01T11:54:05.874Z,14.50
2023-04-01T11:56:36.063Z,14.77
2023-04-01T11:59:11.183Z,14.59
2023-04-01T12:01:52.891Z,14.89
2023-04-01T12:04:49.644Z,15.01
2023-04-01T12:07:24.269Z,14.66
2023-04-01T12:10:12.281Z,14.60
2023-04-01T12:13:02.045Z,14.43
2023-04-01T12:15:50.226Z,14.20
2023-04-01T12:18:29.214Z,14.32
2023-04-01T12:21:01.677Z,14.19
2023-04-01T12:23:58.482Z,13.71
2023-04-01T12:26:43.259Z,13.26
2023-04-01T12:29:19.144Z,13.17
2023-04-01T12:31:49.010Z,12.67
2023-04-01T12:34:44.737Z,12.52
2023-04-01T12:37:30.539Z,12.17
2023-04-01T12:40:25.926Z,11.95
2023-04-01T12:43:24.663Z,11.71
2023-04-01T12:46:12.985Z,11.42
2023-04-01T12:49:07.607Z,11.42
2023-04-01T12:52:00.125Z,10.97
2023-04-01T12:54:48.336Z,11.07
2023-04-01T12:57:42.680Z,10.83
2023-04-01T13:00:34.052Z,10.79
2023-04-01T13:03:38.478Z,10.70
2023-04-01T13:06:24.117Z,10.60
2023-04-01T13:09:18.314Z,10.43
2023-04-01T13:12:23.000Z,10.37
2023-04-01T13:15:11.829Z,10.34
2023-04-01T13:18:01.995Z,10.51
2023-04-01T13:20:43.897Z,10.47
2023-04-01T13:23:31.492Z,10.57
2023-04-01T13:26:18.633Z,10.62
2023-04-01T13:29:07.650Z,10.69
2023-04-01T13:32:03.627Z,10.93
2023-04-01T13:34:49.359Z,10.92
2023-04-01T13:37:22.059Z,11.08
2023-04-01T13:40:31.740Z,11.22
2023-04-01T13:43:12.337Z,11.29
2023-04-01T13:45:56.788Z,11.44
2023-04-01T13:48:51.156Z,11.41
2023-04-01T13:51:31.185Z,11.24
2023-04-01T13:54:39.844Z,11.19
2023-04-01T13:57:44.575Z,11.03
2023-04-01T14:00:29.248Z,11.21
2023-04-01T14:03:05.591Z,11.01
2023-04-01T14:06:06.361Z,10.89
2023-04-01T14:08:39.310Z,10.97
2023-04-01T14:11:40.066Z,11.05
2023-04-01T14:14:34.267Z,11.16
2023-04-01T14:17:22.424Z,11.12
2023-04-01T14:20:08.059Z,11.10
2023-04-01T14:23:01.696Z,11.11
2023-04-01T14:25:51.931Z,11.24
2023-04-01T14:28:51.247Z,10.91
2023-04-01T14:31:39.726Z,10.97
2023-04-01T14:34:31.692Z,11.11
2023-04-01T14:37:17.330Z,11.04
2023-04-01T14:40:05.067Z,11.07
2023-04-01T14:42:53.868Z,11.18
2023-04-01T14:45:55.181Z,11.15
2023-04-01T14:48:25.234Z,11.19
2023-04-01T14:50:58.853Z,11.12
2023-04-01T14:53:43.667Z,11.09
2023-04-01T14:56:10.573Z,11.29
2023-04-01T14:58:51.447Z,11.40
2023-04-01T15:01:33.552Z,11.56
2023-04-01T15:04:30.632Z,11.65
2023-04-01T15:07:04.773Z,11.66
2023-04-01T15:09:52.578Z,11.78
2023-04-01T15:12:31.913Z,11.82
2023-04-01T15:15:17.577Z,11.84
2023-04-01T15:18:03.085Z,11.89
2023-04-01T15:20:33.026Z,11.94
2023-04-01T15:23:08.957Z,11.92
2023-04-01T15:25:51.959Z,11.92
2023-04-01T15:28:44.411Z,11.81
2023-04-01T15:31:26.698Z,11.76
2023-04-01T15:34:13.792Z,11.92
2023-04-01T15:36:45.937Z,12.10
2023-04-01T15:39:18.271Z,12.12
2023-04-01T15:42:09.266Z,12.14
2023-04-01T15:44:55.437Z,12.22
2023-04-01T15:47:25.249Z,12.24
2023-04-01T15:50:21.530Z,12.24
2023-04-01T15:53:20.608Z,12.32
2023-04-01T15:55:51.745Z,12.22
2023-04-01T15:58:37.432Z,12.26
2023-04-01T16:01:23.354Z,12.24
2023-04-01T16:04:25.772Z,12.22
2023-04-01T16:06:58.301Z,12.25
2023-04-01T16:09:44.244Z,12.33
2023-04-01T16:12:11.076Z,12.36
2023-04-01T16:15:10.635Z,12.18
2023-04-01T16:18:00.508Z,12.45
2023-04-01T16:20:40.966Z,12.52
2023-04-01T16:23:34.838Z,12.44
2023-04-01T16:26:23.668Z,12.48
2023-04-01T16:28:59.978Z,12.35
2023-04-01T16:31:50.599Z,12.20
2023-04-01T16:34:37.380Z,12.22
2023-04-01T16:37:33.858Z,12.27
2023-04-01T16:40:19.157Z,12.28
2023-04-01T16:43:07.112Z,12.29
2023-04-01T16:45:36.981Z,12.24
2023-04-01T16:48:14.324Z,12.24
2023-04-01T16:50:54.953Z,12.20
2023-04-01T16:54:20.351Z,12.13
2023-04-01T16:57:03.554Z,12.07
2023-04-01T16:59:38.532Z,12.03
2023-04-01T17:02:08.183Z,12.06
2023-04-01T17:05:09.011Z,11.96
2023-04-01T17:07:58.015Z,11.90
2023-04-01T17:10:45.586Z,11.78
2023-04-01T17:13:35.179Z,11.76
2023-04-01T17:16:22.695Z,11.85
2023-04-01T17:19:03.266Z,11.88
2023-04-01T17:21:57.029Z,11.69
2023-04-01T17:24:29.884Z,11.81
2023-04-01T17:27:25.042Z,11.66
2023-04-01T17:30:22.431Z,11.68
2023-04-01T17:33:09.510Z,11.61
2023-04-01T17:35:54.129Z,11.44
2023-04-01T17:38:29.969Z,11.63
2023-04-01T17:41:08.785Z,11.60
2023-04-01T17:43:40.720Z,11.54
2023-04-01T17:46:22.484Z,11.50
2023-04-01T17:49:14.991Z,11.52
2023-04-01T17:51:47.815Z,11.58
2023-04-01T17:54:42.473Z,11.59
2023-04-01T17:57:30.982Z,11.56
2023-04-01T18:00:13.092Z,11.52
2023-04-01T18:03:07.862Z,11.51
2023-04-01T18:05:52.357Z,11.44
2023-04-01T18:08:30.151Z,11.45
2023-04-01T18:11:10.210Z,11.40
2023-04-01T18:14:06.938Z,11.41
2023-04-01T18:16:39.808Z,11.40
2023-04-01T18:19:48.413Z,11.30
2023-04-01T18:22:40.114Z,11.28
2023-04-01T18:25:20.838Z,11.21
2023-04-01T18:27:56.501Z,11.16
2023-04-01T18:30:35.561Z,11.16
2023-04-01T18:33:25.741Z,11.18
2023-04-01T18:36:00.016Z,11.09
2023-04-01T18:38:41.680Z,11.05
2023-04-01T18:41:23.899Z,11.07
2023-04-01T18:43:58.100Z,11.02
2023-04-01T18:46:31.911Z,10.97
2023-04-01T18:49:18.145Z,10.94
2023-04-01T18:52:23.002Z,10.87
2023-04-01T18:55:01.664Z,10.90
2023-04-01T18:57:46.779Z,10.86
2023-04-01T19:00:35.721Z,10.81
2023-04-01T19:03:12.754Z,10.76
2023-04-01T19:05:43.726Z,10.66
2023-04-01T19:08:40.998Z,10.64
2023-04-01T19:11:37.274Z,10.59
2023-04-01T19:14:21.844Z,10.64
2023-04-01T19:17:26.575Z,10.63
2023-04-01T19:20:18.125Z,10.56
2023-04-01T19:23:03.002Z,10.61
2023-04-01T19:25:36.010Z,10.57
2023-04-01T19:28:17.524Z,10.55
2023-04-01T19:30:58.378Z,10.49
2023-04-01T19:33:37.684Z,10.42
2023-04-01T19:36:31.795Z,10.47
2023-04-01T19:39:17.348Z,10.44
2023-04-01T19:42:05.149Z,10.40
2023-04-01T19:44:41.456Z,10.33
2023-04-01T19:47:17.566Z,10.40
2023-04-01T19:49:54.796Z,10.31
2023-04-01T19:52:31.594Z,10.36
2023-04-01T19:55:05.576Z,10.37
2023-04-01T19:58:08.296Z,10.34
2023-04-01T20:00:56.216Z,10.30
2023-04-01T20:03:52.042Z,10.45
2023-04-01T20:06:25.047Z,10.44
2023-04-01T20:09:17.076Z,10.43
2023-04-01T20:12:15.019Z,10.45
2023-04-01T20:14:50.187Z,10.46
2023-04-01T20:17:16.948Z,10.42
2023-04-01T20:19:46.413Z,10.45
2023-04-01T20:22:38.178Z,10.40
2023-04-01T20:25:25.307Z,10.50
2023-04-01T20:27:54.976Z,10.46
2023-04-01T20:30:46.616Z,10.44
2023-04-01T20:33:42.263Z,10.48
2023-04-01T20:36:29.354Z,10.50
2023-04-01T20:39:16.495Z,10.39
2023-04-01T20:42:08.387Z,10.36
2023-04-01T20:44:54.202Z,10.39
2023-04-01T20:47:36.238Z,10.38
2023-04-01T20:50:12.863Z,10.29
2023-04-01T20:52:47.399Z,10.32
2023-04-01T20:55:32.043Z,10.30
2023-04-01T20:58:05.117Z,10.29
2023-04-01T21:00:35.032Z,10.22
2023-04-01T21:03:07.816Z,10.20
2023-04-01T21:05:55.624Z,10.17
2023-04-01T21:08:25.201Z,10.21
2023-04-01T21:11:19.200Z,10.16
2023-04-01T21:13:58.123Z,10.22
2023-04-01T21:16:58.896Z,10.16
2023-04-01T21:19:26.811Z,10.19
2023-04-01T21:22:20.552Z,10.14
2023-04-01T21:25:32.936Z,10.16
2023-04-01T21:28:17.420Z,10.11
2023-04-01T21:30:50.480Z,10.13
2023-04-01T21:33:42.028Z,10.15
2023-04-01T21:36:56.792Z,10.13
2023-04-01T21:40:02.153Z,10.03
2023-04-01T21:43:02.198Z,10.00
2023-04-01T21:46:02.886Z,10.03
2023-04-01T21:48:54.812Z,10.01
2023-04-01T21:51:40.451Z,9.98
2023-04-01T21:54:34.709Z,10.02
2023-04-01T21:57:38.778Z,10.03
2023-04-01T22:00:17.378Z,10.08
2023-04-01T22:02:59.340Z,10.08
2023-04-01T22:05:38.450Z,10.17
2023-04-01T22:08:21.365Z,10.13
2023-04-01T22:11:18.087Z,10.12
2023-04-01T22:13:52.138Z,10.10
2023-04-01T22:16:33.396Z,10.18
2023-04-01T22:19:25.104Z,10.15
2023-04-01T22:22:19.380Z,10.13
2023-04-01T22:25:18.322Z,10.20
2023-04-01T22:27:57.007Z,10.22
2023-04-01T22:30:26.642Z,10.31
2023-04-01T22:33:16.729Z,10.19
2023-04-01T22:35:46.944Z,10.21
2023-04-01T22:38:16.479Z,10.19
2023-04-01T22:40:58.157Z,10.21
2023-04-01T22:43:46.361Z,10.17
2023-04-01T22:46:35.285Z,10.21
2023-04-01T22:49:18.991Z,10.20
2023-04-01T22:51:52.783Z,10.27
2023-04-01T22:54:22.849Z,10.27
2023-04-01T22:57:13.699Z,10.28
2023-04-01T22:59:58.067Z,10.31
2023-04-01T23:02:40.378Z,10.26
2023-04-01T23:05:13.018Z,10.16
2023-04-01T23:07:57.690Z,10.15
2023-04-01T23:10:45.271Z,10.21
2023-04-01T23:13:19.166Z,10.29
2023-04-01T23:15:46.907Z,10.30
2023-04-01T23:18:31.467Z,10.27
2023-04-01T23:21:16.761Z,10.23
2023-04-01T23:23:49.292Z,10.19
2023-04-01T23:26:38.403Z,10.22
2023-04-01T23:29:14.171Z,10.10
2023-04-01T23:31:46.774Z,10.14
2023-04-01T23:34:13.569Z,10.10
2023-04-01T23:36:47.325Z,10.04
2023-04-01T23:39:41.843Z,10.01
2023-04-01T23:42:22.186Z,9.94
2023-04-01T23:44:56.981Z,9.87
2023-04-01T23:47:28.046Z,9.80
2023-04-01T23:50:00.075Z,9.79
2023-04-01T23:52:32.241Z,9.73
2023-04-01T23:55:18.350Z,9.67
2023-04-01T23:58:21.694Z,9.53
